createdAt,value
2018-01-20T00:02:02.791Z,6.80
2018-01-20T00:04:30.232Z,6.77
2018-01-20T00:06:57.987Z,7.13
2018-01-20T00:09:26.308Z,7.20
2018-01-20T00:11:54.051Z,7.10
2018-01-20T00:14:22.316Z,7.30
2018-01-20T00:16:49.744Z,6.53
2018-01-20T00:19:17.895Z,6.63
2018-01-20T00:21:45.356Z,6.77
2018-01-20T00:24:14.473Z,6.33
2018-01-20T00:26:41.987Z,6.97
2018-01-20T00:29:09.386Z,6.80
2018-01-20T00:31:37.588Z,7.23
2018-01-20T00:34:05.033Z,7.40
2018-01-20T00:36:32.504Z,7.23
2018-01-20T00:39:00.016Z,6.90
2018-01-20T00:41:27.518Z,7.67
2018-01-20T00:43:54.933Z,6.50
2018-01-20T00:46:22.316Z,7.33
2018-01-20T00:48:49.701Z,9.47
2018-01-20T00:51:17.187Z,7.03
2018-01-20T00:53:45.026Z,7.50
2018-01-20T00:56:14.532Z,6.30
2018-01-20T00:58:42.279Z,7.50
2018-01-20T01:01:09.913Z,6.63
2018-01-20T01:03:37.403Z,5.70
2018-01-20T01:06:05.567Z,6.47
2018-01-20T01:08:33.101Z,6.30
2018-01-20T01:11:00.565Z,7.10
2018-01-20T01:13:28.066Z,6.77
2018-01-20T01:15:55.523Z,6.97
2018-01-20T01:18:23.007Z,7.17
2018-01-20T01:20:50.443Z,6.83
2018-01-20T01:23:18.630Z,5.50
2018-01-20T01:25:46.077Z,5.30
2018-01-20T01:28:17.410Z,7.20
2018-01-20T01:30:46.087Z,6.03
2018-01-20T01:33:13.527Z,5.57
2018-01-20T01:35:40.996Z,5.70
2018-01-20T01:38:08.462Z,5.50
2018-01-20T01:40:36.183Z,6.60
2018-01-20T01:43:03.706Z,5.57
2018-01-20T01:45:31.148Z,4.93
2018-01-20T01:47:58.551Z,4.90
2018-01-20T01:50:26.079Z,4.87
2018-01-20T01:52:53.771Z,5.03
2018-01-20T01:55:21.507Z,5.50
2018-01-20T01:57:49.299Z,5.43
2018-01-20T02:00:16.727Z,5.83
2018-01-20T02:02:44.208Z,6.10
2018-01-20T02:05:11.987Z,6.40
2018-01-20T02:07:39.556Z,5.23
2018-01-20T02:10:07.020Z,5.10
2018-01-20T02:12:34.456Z,5.50
2018-01-20T02:31:17.769Z,5.40
2018-01-20T02:33:45.949Z,5.43
2018-01-20T02:36:13.670Z,6.70
2018-01-20T02:38:41.089Z,6.00
2018-01-20T02:41:09.610Z,5.20
2018-01-20T02:43:37.892Z,5.93
2018-01-20T02:46:05.346Z,4.97
2018-01-20T02:48:32.827Z,5.37
2018-01-20T02:51:00.224Z,4.63
2018-01-20T02:53:28.385Z,5.70
2018-01-20T02:55:56.678Z,5.73
2018-01-20T02:58:24.945Z,5.73
2018-01-20T03:00:52.435Z,5.90
2018-01-20T03:03:20.641Z,5.37
2018-01-20T03:05:48.057Z,5.87
2018-01-20T03:08:16.222Z,5.70
2018-01-20T03:10:43.602Z,5.37
2018-01-20T03:13:11.069Z,5.27
2018-01-20T03:15:39.274Z,5.30
2018-01-20T03:18:07.009Z,5.67
2018-01-20T03:20:34.434Z,5.13
2018-01-20T03:23:01.844Z,5.00
2018-01-20T03:25:29.371Z,5.47
2018-01-20T03:27:56.839Z,5.73
2018-01-20T03:30:24.957Z,5.17
2018-01-20T03:32:52.427Z,5.47
2018-01-20T03:35:20.034Z,5.43
2018-01-20T03:37:47.486Z,5.87
2018-01-20T03:40:15.269Z,5.70
2018-01-20T03:42:43.149Z,5.50
2018-01-20T03:45:10.660Z,6.30
2018-01-20T03:47:38.942Z,5.67
2018-01-20T03:50:06.458Z,5.30
2018-01-20T03:52:34.105Z,5.63
2018-01-20T03:55:01.907Z,5.90
2018-01-20T03:57:29.644Z,5.70
2018-01-20T03:59:57.507Z,5.80
2018-01-20T04:02:25.047Z,5.20
2018-01-20T04:04:52.440Z,5.90
2018-01-20T04:07:20.069Z,5.17
2018-01-20T04:09:47.493Z,6.97
2018-01-20T04:12:15.278Z,5.80
2018-01-20T04:14:42.975Z,6.40
2018-01-20T04:17:10.489Z,6.17
2018-01-20T04:19:38.183Z,5.50
2018-01-20T04:22:05.666Z,5.43
2018-01-20T04:24:33.085Z,5.90
2018-01-20T04:27:00.536Z,5.20
2018-01-20T04:29:27.912Z,6.20
2018-01-20T04:31:56.052Z,6.10
2018-01-20T04:34:23.616Z,5.70
2018-01-20T04:36:50.992Z,6.00
2018-01-20T04:39:19.153Z,6.40
2018-01-20T04:41:46.755Z,5.40
2018-01-20T04:44:15.018Z,5.50
2018-01-20T04:46:42.428Z,5.40
2018-01-20T04:49:09.884Z,5.20
2018-01-20T04:51:37.322Z,5.40
2018-01-20T04:54:04.796Z,5.50
2018-01-20T04:56:32.627Z,5.90
2018-01-20T04:59:00.034Z,5.33
2018-01-20T05:01:27.439Z,5.67
2018-01-20T05:03:54.839Z,5.83
2018-01-20T05:06:22.649Z,4.63
2018-01-20T05:08:51.069Z,5.10
2018-01-20T05:11:18.597Z,5.47
2018-01-20T05:13:45.988Z,6.00
2018-01-20T05:16:13.393Z,5.30
2018-01-20T05:18:41.005Z,5.60
2018-01-20T05:21:09.135Z,5.20
2018-01-20T05:23:36.605Z,5.80
2018-01-20T05:26:04.123Z,5.70
2018-01-20T05:28:31.603Z,5.73
2018-01-20T05:30:58.998Z,5.30
2018-01-20T05:33:27.502Z,5.10
2018-01-20T05:35:54.996Z,6.40
2018-01-20T05:38:22.802Z,5.10
2018-01-20T05:40:51.098Z,5.00
2018-01-20T05:43:18.658Z,4.43
2018-01-20T05:45:46.075Z,5.40
2018-01-20T05:48:13.635Z,5.00
2018-01-20T05:50:41.254Z,4.80
2018-01-20T05:53:08.799Z,4.97
2018-01-20T05:55:36.203Z,5.23
2018-01-20T05:58:04.034Z,5.73
2018-01-20T06:00:32.575Z,5.40
2018-01-20T06:03:00.064Z,5.53
2018-01-20T06:05:28.462Z,6.00
2018-01-20T06:07:56.949Z,5.40
2018-01-20T06:10:24.437Z,5.60
2018-01-20T06:12:51.871Z,4.83
2018-01-20T06:15:19.282Z,5.43
2018-01-20T06:17:46.676Z,4.93
2018-01-20T06:20:14.168Z,5.33
2018-01-20T06:22:41.638Z,5.93
2018-01-20T06:25:09.243Z,4.80
2018-01-20T06:27:37.373Z,5.17
2018-01-20T06:30:04.843Z,5.40
2018-01-20T06:32:32.454Z,5.30
2018-01-20T06:34:59.932Z,4.60
2018-01-20T06:37:27.680Z,5.33
2018-01-20T06:39:55.449Z,5.43
2018-01-20T06:42:23.326Z,5.17
2018-01-20T06:44:50.847Z,4.80
2018-01-20T06:47:19.361Z,5.27
2018-01-20T06:49:46.800Z,5.67
2018-01-20T06:52:14.955Z,5.23
2018-01-20T06:54:43.377Z,4.83
2018-01-20T06:57:10.764Z,5.33
2018-01-20T06:59:38.334Z,5.40
2018-01-20T07:02:05.727Z,5.47
2018-01-20T07:04:33.109Z,5.20
2018-01-20T07:07:00.669Z,5.00
2018-01-20T07:09:28.318Z,5.73
2018-01-20T07:11:55.773Z,5.10
2018-01-20T07:14:23.959Z,5.00
2018-01-20T07:16:52.095Z,4.43
2018-01-20T07:19:20.429Z,4.93
2018-01-20T07:21:48.200Z,4.80
2018-01-20T07:24:15.758Z,5.07
2018-01-20T07:26:43.567Z,5.40
2018-01-20T07:29:11.300Z,6.13
2018-01-20T07:31:38.790Z,5.00
2018-01-20T07:34:06.571Z,5.30
2018-01-20T07:36:34.379Z,4.43
2018-01-20T07:39:02.054Z,5.57
2018-01-20T07:41:29.502Z,5.07
2018-01-20T07:43:57.366Z,4.40
2018-01-20T07:46:24.925Z,5.13
2018-01-20T07:48:52.362Z,5.50
2018-01-20T07:51:21.034Z,4.83
2018-01-20T07:53:48.767Z,5.37
2018-01-20T07:56:16.190Z,5.50
2018-01-20T07:58:44.661Z,4.30
2018-01-20T08:01:12.876Z,4.80
2018-01-20T08:03:41.241Z,5.10
2018-01-20T08:06:09.688Z,5.10
2018-01-20T08:08:37.112Z,5.77
2018-01-20T08:11:04.827Z,4.77
2018-01-20T08:13:32.279Z,4.77
2018-01-20T08:15:59.974Z,5.03
2018-01-20T08:18:27.737Z,4.80
2018-01-20T08:20:55.233Z,3.83
2018-01-20T08:23:22.607Z,5.13
2018-01-20T08:25:50.015Z,4.40
2018-01-20T08:28:17.973Z,5.50
2018-01-20T08:30:46.094Z,4.50
2018-01-20T08:33:13.496Z,5.00
2018-01-20T08:35:41.047Z,4.47
2018-01-20T08:38:08.673Z,5.10
2018-01-20T08:40:36.070Z,4.83
2018-01-20T08:43:03.495Z,4.93
2018-01-20T08:45:31.332Z,4.60
2018-01-20T08:47:58.813Z,4.63
2018-01-20T08:50:26.223Z,5.13
2018-01-20T08:52:54.362Z,4.33
2018-01-20T08:55:22.191Z,4.67
2018-01-20T08:57:49.958Z,4.83
2018-01-20T09:00:18.700Z,4.87
2018-01-20T09:02:46.110Z,4.40
2018-01-20T09:05:13.521Z,5.00
2018-01-20T09:07:41.007Z,4.80
2018-01-20T09:10:09.171Z,4.30
2018-01-20T09:12:36.616Z,5.03
2018-01-20T09:15:04.861Z,4.73
2018-01-20T09:33:52.391Z,5.23
2018-01-20T09:36:20.064Z,4.87
2018-01-20T09:38:47.494Z,4.87
2018-01-20T09:41:14.916Z,4.80
2018-01-20T09:43:42.328Z,4.00
2018-01-20T09:46:09.788Z,5.13
2018-01-20T09:48:37.273Z,4.40
2018-01-20T09:51:05.000Z,5.57
2018-01-20T09:53:32.718Z,4.77
2018-01-20T09:56:00.136Z,5.10
2018-01-20T09:58:27.893Z,4.80
2018-01-20T10:00:56.378Z,5.03
2018-01-20T10:03:24.015Z,4.80
2018-01-20T10:22:12.378Z,5.70
2018-01-20T10:24:40.784Z,5.13
2018-01-20T10:27:08.257Z,4.40
2018-01-20T10:29:35.657Z,5.00
2018-01-20T10:32:03.157Z,4.78
2018-01-20T10:34:30.613Z,4.90
2018-01-20T10:36:58.910Z,5.20
2018-01-20T10:39:26.307Z,4.97
2018-01-20T10:41:54.709Z,4.37
2018-01-20T10:44:22.205Z,4.60
2018-01-20T10:46:49.548Z,4.40
2018-01-20T11:02:18.788Z,5.17
2018-01-20T11:04:46.239Z,4.50
2018-01-20T11:07:13.753Z,5.27
2018-01-20T11:09:41.083Z,5.20
2018-01-20T11:12:09.348Z,5.80
2018-01-20T11:14:37.173Z,5.50
2018-01-20T11:17:04.679Z,5.73
2018-01-20T11:19:32.222Z,7.00
2018-01-20T11:22:00.408Z,9.30
2018-01-20T11:24:27.959Z,8.37
2018-01-20T11:26:55.398Z,8.40
2018-01-20T11:29:23.058Z,9.87
2018-01-20T11:31:51.328Z,10.43
2018-01-20T11:34:19.206Z,11.00
2018-01-20T11:59:31.955Z,8.50
2018-01-20T12:05:12.046Z,6.97
2018-01-20T12:08:00.931Z,8.63
2018-01-20T12:10:42.859Z,7.90
2018-01-20T12:13:25.136Z,7.23
2018-01-20T12:16:07.184Z,7.97
2018-01-20T12:18:49.216Z,7.60
2018-01-20T12:21:32.193Z,8.20
2018-01-20T12:24:15.006Z,7.78
2018-01-20T12:26:57.526Z,8.30
2018-01-20T12:29:39.952Z,8.70
2018-01-20T12:32:22.897Z,8.57
2018-01-20T12:35:04.983Z,9.13
2018-01-20T12:37:47.881Z,8.40
2018-01-20T12:40:30.578Z,8.70
2018-01-20T12:43:12.817Z,8.70
2018-01-20T12:45:55.011Z,8.47
2018-01-20T12:48:37.235Z,8.23
2018-01-20T12:51:19.072Z,9.43
2018-01-20T12:54:02.332Z,9.77
2018-01-20T12:56:44.635Z,14.43
2018-01-20T12:59:27.427Z,10.17
2018-01-20T13:02:09.722Z,9.87
2018-01-20T13:04:52.360Z,10.40
2018-01-20T13:07:34.048Z,9.83
2018-01-20T13:10:16.573Z,9.70
2018-01-20T13:12:58.453Z,10.67
2018-01-20T13:15:41.097Z,9.77
2018-01-20T13:18:24.091Z,11.73
2018-01-20T13:21:06.573Z,9.20
2018-01-20T13:23:48.879Z,11.57
2018-01-20T13:26:33.367Z,12.83
2018-01-20T13:29:16.796Z,14.43
2018-01-20T13:32:01.289Z,14.97
2018-01-20T13:34:44.232Z,13.80
2018-01-20T13:37:28.021Z,13.90
2018-01-20T13:40:11.714Z,14.87
2018-01-20T13:42:58.264Z,13.75
2018-01-20T13:45:42.088Z,10.83
2018-01-20T13:48:26.553Z,10.87
2018-01-20T13:51:10.286Z,11.57
2018-01-20T13:53:53.755Z,12.70
2018-01-20T13:56:37.083Z,12.80
2018-01-20T13:59:20.227Z,11.12
2018-01-20T14:02:25.116Z,11.10
2018-01-20T14:04:52.835Z,12.90
2018-01-20T14:07:22.013Z,11.93
2018-01-20T14:09:50.078Z,12.00
2018-01-20T14:12:17.546Z,11.37
2018-01-20T14:14:45.067Z,10.80
2018-01-20T14:17:12.851Z,9.23
2018-01-20T14:19:40.816Z,8.40
2018-01-20T14:22:08.704Z,7.07
2018-01-20T14:24:37.757Z,7.20
2018-01-20T14:27:06.157Z,5.90
2018-01-20T14:29:34.642Z,5.50
2018-01-20T14:32:03.076Z,4.80
2018-01-20T14:34:32.036Z,4.27
2018-01-20T14:36:59.695Z,4.40
2018-01-20T14:39:28.482Z,3.90
2018-01-20T14:41:56.802Z,4.97
2018-01-20T14:44:25.211Z,7.10
2018-01-20T14:46:54.172Z,11.73
2018-01-20T14:49:22.262Z,10.80
2018-01-20T14:51:50.590Z,11.60
2018-01-20T14:54:18.836Z,11.10
2018-01-20T14:56:47.015Z,10.53
2018-01-20T14:59:14.698Z,10.17
2018-01-20T15:01:43.066Z,9.70
2018-01-20T15:04:11.262Z,10.03
2018-01-20T15:06:40.419Z,14.63
2018-01-20T15:09:09.039Z,16.83
2018-01-20T15:11:37.429Z,16.20
2018-01-20T15:14:05.342Z,15.53
2018-01-20T15:16:32.895Z,13.67
2018-01-20T15:19:00.932Z,14.13
2018-01-20T15:21:28.826Z,13.23
2018-01-20T15:23:57.940Z,14.63
2018-01-20T15:26:25.974Z,13.50
2018-01-20T15:28:53.647Z,14.30
2018-01-20T15:31:21.438Z,13.30
2018-01-20T15:33:49.054Z,13.80
2018-01-20T15:36:17.981Z,13.30
2018-01-20T15:38:47.032Z,14.10
2018-01-20T15:41:16.170Z,12.60
2018-01-20T15:43:43.934Z,12.03
2018-01-20T15:46:11.422Z,12.70
2018-01-20T15:48:38.939Z,12.43
2018-01-20T15:51:06.939Z,12.47
2018-01-20T15:53:35.381Z,11.87
2018-01-20T15:56:03.385Z,10.63
2018-01-20T15:58:32.088Z,11.07
2018-01-20T16:01:00.510Z,12.37
2018-01-20T16:03:29.070Z,11.03
2018-01-20T16:05:57.238Z,11.07
2018-01-20T16:08:26.077Z,11.10
2018-01-20T16:10:53.905Z,10.33
2018-01-20T16:13:21.696Z,9.87
2018-01-20T16:15:49.909Z,10.77
2018-01-20T16:18:17.396Z,10.20
2018-01-20T16:20:45.301Z,10.93
2018-01-20T16:23:14.290Z,10.67
2018-01-20T16:25:42.946Z,10.20
2018-01-20T16:28:10.659Z,11.10
2018-01-20T16:30:38.036Z,9.40
2018-01-20T16:33:06.694Z,10.43
2018-01-20T16:35:35.201Z,10.50
2018-01-20T16:38:02.940Z,9.33
2018-01-20T16:40:31.121Z,8.93
2018-01-20T16:42:59.611Z,10.27
2018-01-20T16:45:27.120Z,9.40
2018-01-20T16:47:55.558Z,9.90
2018-01-20T16:50:23.215Z,9.57
2018-01-20T16:52:50.676Z,9.03
2018-01-20T16:55:18.187Z,9.30
2018-01-20T16:57:45.627Z,8.30
2018-01-20T17:00:14.258Z,9.53
2018-01-20T17:02:42.737Z,9.00
2018-01-20T17:05:10.236Z,8.27
2018-01-20T17:23:58.070Z,8.33
2018-01-20T17:26:25.542Z,8.77
2018-01-20T17:28:53.020Z,9.50
2018-01-20T17:31:20.604Z,7.97
2018-01-20T17:33:48.430Z,8.70
2018-01-20T17:36:15.959Z,8.23
2018-01-20T17:38:44.433Z,9.00
2018-01-20T17:41:12.650Z,7.90
2018-01-20T17:43:40.197Z,8.67
2018-01-20T17:46:08.371Z,9.37
2018-01-20T17:48:36.595Z,9.60
2018-01-20T17:51:04.130Z,9.10
2018-01-20T17:53:31.640Z,9.33
2018-01-20T17:55:59.121Z,8.00
2018-01-20T17:58:26.804Z,9.50
2018-01-20T18:00:54.406Z,8.50
2018-01-20T18:03:23.400Z,9.37
2018-01-20T18:05:50.980Z,9.57
2018-01-20T18:08:18.704Z,10.50
2018-01-20T18:10:46.428Z,8.30
2018-01-20T18:13:14.121Z,8.53
2018-01-20T18:15:42.297Z,9.00
2018-01-20T18:18:10.071Z,9.73
2018-01-20T18:20:37.708Z,10.20
2018-01-20T18:23:05.148Z,9.67
2018-01-20T18:38:38.786Z,10.10
2018-01-20T18:41:07.051Z,10.17
2018-01-20T18:43:34.484Z,10.67
2018-01-20T18:46:01.960Z,10.70
2018-01-20T18:48:31.181Z,9.77
2018-01-20T18:50:59.351Z,10.70
2018-01-20T18:53:27.507Z,9.17
2018-01-20T18:55:56.740Z,10.40
2018-01-20T18:58:24.174Z,10.53
2018-01-20T19:00:51.631Z,10.70
2018-01-20T19:03:19.912Z,10.63
2018-01-20T19:05:48.063Z,10.57
2018-01-20T19:08:15.533Z,10.27
2018-01-20T19:10:43.684Z,11.03
2018-01-20T19:13:11.190Z,11.53
2018-01-20T19:15:38.780Z,11.70
2018-01-20T19:18:06.370Z,12.03
2018-01-20T19:20:33.853Z,11.50
2018-01-20T19:23:01.305Z,11.43
2018-01-20T19:25:29.122Z,10.67
2018-01-20T19:27:56.778Z,11.30
2018-01-20T19:30:24.508Z,12.40
2018-01-20T19:32:51.919Z,12.23
2018-01-20T19:35:19.460Z,12.40
2018-01-20T19:37:46.997Z,11.00
2018-01-20T19:40:15.156Z,11.80
2018-01-20T19:42:42.554Z,12.40
2018-01-20T19:45:10.718Z,11.10
2018-01-20T19:47:38.894Z,12.03
2018-01-20T19:50:07.099Z,11.73
2018-01-20T19:52:34.752Z,10.83
2018-01-20T19:55:02.264Z,13.13
2018-01-20T19:57:29.764Z,12.30
2018-01-20T19:59:57.190Z,14.30
2018-01-20T20:02:24.605Z,13.30
2018-01-20T20:04:52.044Z,12.20
2018-01-20T20:07:20.542Z,13.17
2018-01-20T20:09:47.985Z,13.53
2018-01-20T20:12:15.404Z,13.00
2018-01-20T20:14:42.888Z,13.13
2018-01-20T20:17:11.130Z,13.17
2018-01-20T20:19:38.628Z,12.60
2018-01-20T20:22:06.199Z,13.13
2018-01-20T20:24:33.695Z,13.50
2018-01-20T20:27:01.136Z,14.13
2018-01-20T20:29:28.580Z,13.87
2018-01-20T20:31:55.966Z,14.13
2018-01-20T20:34:24.601Z,12.77
2018-01-20T20:36:52.770Z,11.90
2018-01-20T20:39:20.208Z,12.53
2018-01-20T20:54:52.806Z,12.70
2018-01-20T20:57:20.989Z,12.90
2018-01-20T20:59:48.493Z,14.07
2018-01-20T21:02:15.952Z,13.20
2018-01-20T21:07:13.109Z,13.50
2018-01-20T21:09:40.927Z,14.00
2018-01-20T21:12:08.314Z,12.23
2018-01-20T21:14:35.718Z,13.27
2018-01-20T21:17:03.428Z,13.80
2018-01-20T21:19:31.633Z,14.10
2018-01-20T21:21:59.500Z,13.10
2018-01-20T21:24:27.020Z,13.97
2018-01-20T21:26:54.834Z,12.67
2018-01-20T21:29:22.444Z,11.77
2018-01-20T21:31:50.815Z,13.00
2018-01-20T21:34:18.259Z,13.10
2018-01-20T21:36:46.429Z,14.20
2018-01-20T21:39:14.264Z,12.23
2018-01-20T21:41:41.759Z,11.98
2018-01-20T21:44:09.549Z,13.13
2018-01-20T21:46:37.159Z,13.77
2018-01-20T21:49:04.656Z,12.80
2018-01-20T21:51:32.179Z,13.83
2018-01-20T21:53:59.568Z,14.30
2018-01-20T21:56:26.975Z,12.93
2018-01-20T21:58:54.757Z,13.80
2018-01-20T22:01:22.293Z,13.07
2018-01-20T22:03:49.857Z,12.70
2018-01-20T22:06:18.078Z,13.10
2018-01-20T22:08:45.739Z,12.70
2018-01-20T22:11:13.175Z,14.37
2018-01-20T22:13:41.678Z,13.10
2018-01-20T22:16:09.514Z,13.63
2018-01-20T22:18:37.020Z,13.70
2018-01-20T22:21:04.865Z,13.70
2018-01-20T22:23:32.356Z,13.20
2018-01-20T22:26:00.579Z,13.00
2018-01-20T22:28:28.707Z,14.57
2018-01-20T22:30:56.117Z,13.40
2018-01-20T22:33:24.430Z,13.20
2018-01-20T22:35:51.902Z,13.50
2018-01-20T22:38:19.287Z,14.20
2018-01-20T22:40:47.523Z,13.20
2018-01-20T22:43:14.958Z,14.63
2018-01-20T22:45:42.350Z,13.63
2018-01-20T22:48:09.802Z,14.40
2018-01-20T22:50:37.218Z,13.77
2018-01-20T22:53:05.366Z,12.80
2018-01-20T22:55:33.072Z,13.40
2018-01-20T22:58:01.440Z,12.73
2018-01-20T23:00:29.575Z,13.17
2018-01-20T23:02:56.999Z,14.47
2018-01-20T23:05:24.348Z,13.13
2018-01-20T23:07:51.787Z,14.47
2018-01-20T23:10:19.357Z,13.70
2018-01-20T23:12:47.136Z,13.60
2018-01-20T23:15:14.540Z,13.50
2018-01-20T23:17:42.208Z,13.60
2018-01-20T23:20:10.414Z,13.00
2018-01-20T23:22:37.893Z,11.73
2018-01-20T23:25:05.353Z,12.60
2018-01-20T23:27:32.814Z,13.50
2018-01-20T23:30:01.286Z,12.30
2018-01-20T23:32:28.771Z,12.80
2018-01-20T23:34:56.242Z,11.17
2018-01-20T23:37:23.845Z,13.83
2018-01-20T23:39:52.090Z,11.80
2018-01-20T23:42:19.601Z,11.67
2018-01-20T23:44:47.166Z,13.23
2018-01-20T23:47:14.647Z,12.83
2018-01-20T23:49:42.186Z,10.90
2018-01-20T23:52:10.064Z,10.60
2018-01-20T23:54:37.638Z,12.03
2018-01-20T23:57:05.101Z,12.40
2018-01-20T23:59:32.570Z,11.13
